sensor_id;sensor_type;location;lat;lon;timestamp;P1;durP1;ratioP1;P2;durP2;ratioP2
10509;SDS011;5303;53.266;10.410;2023-04-03T00:00:28;9.33;;;3.50;;
10509;SDS011;5303;53.266;10.410;2023-04-03T00:02:54;7.80;;;3.90;;
10509;SDS011;5303;53.266;10.410;2023-04-03T00:05:19;7.90;;;3.50;;
10509;SDS011;5303;53.266;10.410;2023-04-03T00:07:45;6.50;;;3.30;;
10509;SDS011;5303;53.266;10.410;2023-04-03T00:10:10;7.03;;;3.20;;
10509;SDS011;5303;53.266;10.410;2023-04-03T00:12:36;6.63;;;3.63;;
10509;SDS011;5303;53.266;10.410;2023-04-03T00:15:02;6.17;;;2.60;;
10509;SDS011;5303;53.266;10.410;2023-04-03T00:17:27;7.53;;;2.50;;
10509;SDS011;5303;53.266;10.410;2023-04-03T00:19:52;14.43;;;3.93;;
10509;SDS011;5303;53.266;10.410;2023-04-03T00:22:18;13.93;;;4.50;;
10509;SDS011;5303;53.266;10.410;2023-04-03T00:24:43;16.37;;;8.47;;
10509;SDS011;5303;53.266;10.410;2023-04-03T00:27:08;8.80;;;4.10;;
10509;SDS011;5303;53.266;10.410;2023-04-03T00:29:34;5.93;;;3.07;;
10509;SDS011;5303;53.266;10.410;2023-04-03T00:31:59;7.70;;;3.37;;
10509;SDS011;5303;53.266;10.410;2023-04-03T00:34:24;5.27;;;2.80;;
10509;SDS011;5303;53.266;10.410;2023-04-03T00:36:50;6.63;;;2.97;;
10509;SDS011;5303;53.266;10.410;2023-04-03T00:39:16;7.87;;;2.43;;
10509;SDS011;5303;53.266;10.410;2023-04-03T00:41:41;7.03;;;2.90;;
10509;SDS011;5303;53.266;10.410;2023-04-03T00:47:00;5.37;;;3.33;;
10509;SDS011;5303;53.266;10.410;2023-04-03T00:49:27;9.50;;;5.00;;
10509;SDS011;5303;53.266;10.410;2023-04-03T00:51:53;9.23;;;4.63;;
10509;SDS011;5303;53.266;10.410;2023-04-03T00:54:19;7.03;;;4.20;;
10509;SDS011;5303;53.266;10.410;2023-04-03T00:56:45;8.80;;;4.93;;
10509;SDS011;5303;53.266;10.410;2023-04-03T00:59:12;8.40;;;4.80;;
10509;SDS011;5303;53.266;10.410;2023-04-03T01:01:40;9.60;;;4.37;;
10509;SDS011;5303;53.266;10.410;2023-04-03T01:04:06;8.37;;;4.00;;
10509;SDS011;5303;53.266;10.410;2023-04-03T01:06:57;5.10;;;2.67;;
10509;SDS011;5303;53.266;10.410;2023-04-03T01:09:26;5.23;;;2.43;;
10509;SDS011;5303;53.266;10.410;2023-04-03T01:11:53;7.40;;;2.70;;
10509;SDS011;5303;53.266;10.410;2023-04-03T01:14:18;4.97;;;2.33;;
10509;SDS011;5303;53.266;10.410;2023-04-03T01:16:51;4.40;;;2.67;;
10509;SDS011;5303;53.266;10.410;2023-04-03T01:19:17;3.53;;;2.30;;
10509;SDS011;5303;53.266;10.410;2023-04-03T01:24:50;5.67;;;3.10;;
10509;SDS011;5303;53.266;10.410;2023-04-03T01:27:18;9.33;;;3.10;;
10509;SDS011;5303;53.266;10.410;2023-04-03T01:29:43;7.87;;;2.30;;
10509;SDS011;5303;53.266;10.410;2023-04-03T01:32:08;5.13;;;2.20;;
10509;SDS011;5303;53.266;10.410;2023-04-03T01:34:34;5.23;;;2.37;;
10509;SDS011;5303;53.266;10.410;2023-04-03T01:36:59;6.50;;;2.60;;
10509;SDS011;5303;53.266;10.410;2023-04-03T01:39:25;6.13;;;2.80;;
10509;SDS011;5303;53.266;10.410;2023-04-03T01:41:50;4.80;;;2.50;;
10509;SDS011;5303;53.266;10.410;2023-04-03T01:44:15;6.73;;;3.00;;
10509;SDS011;5303;53.266;10.410;2023-04-03T01:46:41;4.93;;;2.47;;
10509;SDS011;5303;53.266;10.410;2023-04-03T01:49:07;5.90;;;2.40;;
10509;SDS011;5303;53.266;10.410;2023-04-03T01:51:33;4.60;;;2.40;;
10509;SDS011;5303;53.266;10.410;2023-04-03T01:53:58;6.00;;;2.40;;
10509;SDS011;5303;53.266;10.410;2023-04-03T01:56:23;6.57;;;2.60;;
10509;SDS011;5303;53.266;10.410;2023-04-03T01:58:50;5.07;;;2.70;;
10509;SDS011;5303;53.266;10.410;2023-04-03T02:01:15;8.87;;;2.67;;
10509;SDS011;5303;53.266;10.410;2023-04-03T02:03:41;5.93;;;2.40;;
10509;SDS011;5303;53.266;10.410;2023-04-03T02:06:06;6.47;;;2.77;;
10509;SDS011;5303;53.266;10.410;2023-04-03T02:08:31;5.57;;;2.63;;
10509;SDS011;5303;53.266;10.410;2023-04-03T02:10:56;5.93;;;2.80;;
10509;SDS011;5303;53.266;10.410;2023-04-03T02:13:22;5.20;;;2.90;;
10509;SDS011;5303;53.266;10.410;2023-04-03T02:15:47;11.03;;;3.40;;
10509;SDS011;5303;53.266;10.410;2023-04-03T02:18:13;7.57;;;3.23;;
10509;SDS011;5303;53.266;10.410;2023-04-03T02:20:38;4.33;;;2.93;;
10509;SDS011;5303;53.266;10.410;2023-04-03T02:23:04;5.93;;;3.20;;
10509;SDS011;5303;53.266;10.410;2023-04-03T02:25:30;6.03;;;2.80;;
10509;SDS011;5303;53.266;10.410;2023-04-03T02:27:56;4.90;;;2.97;;
10509;SDS011;5303;53.266;10.410;2023-04-03T02:30:22;5.93;;;2.63;;
10509;SDS011;5303;53.266;10.410;2023-04-03T02:32:47;4.67;;;2.73;;
10509;SDS011;5303;53.266;10.410;2023-04-03T02:35:12;5.07;;;2.63;;
10509;SDS011;5303;53.266;10.410;2023-04-03T02:37:38;5.63;;;2.80;;
10509;SDS011;5303;53.266;10.410;2023-04-03T02:40:03;4.77;;;2.43;;
10509;SDS011;5303;53.266;10.410;2023-04-03T02:42:30;7.10;;;3.10;;
10509;SDS011;5303;53.266;10.410;2023-04-03T02:44:55;12.73;;;2.80;;
10509;SDS011;5303;53.266;10.410;2023-04-03T02:47:20;4.73;;;2.40;;
10509;SDS011;5303;53.266;10.410;2023-04-03T02:49:46;6.63;;;2.70;;
10509;SDS011;5303;53.266;10.410;2023-04-03T02:52:14;7.20;;;2.80;;
10509;SDS011;5303;53.266;10.410;2023-04-03T02:54:39;5.73;;;3.03;;
10509;SDS011;5303;53.266;10.410;2023-04-03T02:57:05;9.07;;;2.80;;
10509;SDS011;5303;53.266;10.410;2023-04-03T02:59:30;5.03;;;3.30;;
10509;SDS011;5303;53.266;10.410;2023-04-03T03:01:55;5.60;;;2.60;;
10509;SDS011;5303;53.266;10.410;2023-04-03T03:04:21;8.53;;;3.00;;
10509;SDS011;5303;53.266;10.410;2023-04-03T03:06:47;6.53;;;3.00;;
10509;SDS011;5303;53.266;10.410;2023-04-03T03:09:12;6.83;;;3.07;;
10509;SDS011;5303;53.266;10.410;2023-04-03T03:11:38;6.40;;;3.30;;
10509;SDS011;5303;53.266;10.410;2023-04-03T03:14:03;7.47;;;3.10;;
10509;SDS011;5303;53.266;10.410;2023-04-03T03:16:29;6.20;;;2.83;;
10509;SDS011;5303;53.266;10.410;2023-04-03T03:18:54;5.33;;;3.03;;
10509;SDS011;5303;53.266;10.410;2023-04-03T03:21:20;7.00;;;3.10;;
10509;SDS011;5303;53.266;10.410;2023-04-03T03:23:45;5.17;;;3.33;;
10509;SDS011;5303;53.266;10.410;2023-04-03T03:26:11;6.37;;;3.50;;
10509;SDS011;5303;53.266;10.410;2023-04-03T03:28:37;6.70;;;3.03;;
10509;SDS011;5303;53.266;10.410;2023-04-03T03:31:04;6.43;;;2.90;;
10509;SDS011;5303;53.266;10.410;2023-04-03T03:33:30;6.13;;;3.00;;
10509;SDS011;5303;53.266;10.410;2023-04-03T03:35:56;6.63;;;3.27;;
10509;SDS011;5303;53.266;10.410;2023-04-03T03:38:21;5.37;;;2.97;;
10509;SDS011;5303;53.266;10.410;2023-04-03T03:40:48;6.17;;;3.30;;
10509;SDS011;5303;53.266;10.410;2023-04-03T03:43:15;8.23;;;2.97;;
10509;SDS011;5303;53.266;10.410;2023-04-03T03:45:40;8.30;;;3.63;;
10509;SDS011;5303;53.266;10.410;2023-04-03T03:48:06;8.53;;;3.63;;
10509;SDS011;5303;53.266;10.410;2023-04-03T03:50:31;5.80;;;3.10;;
10509;SDS011;5303;53.266;10.410;2023-04-03T03:52:56;6.07;;;3.23;;
10509;SDS011;5303;53.266;10.410;2023-04-03T03:55:22;4.70;;;3.30;;
10509;SDS011;5303;53.266;10.410;2023-04-03T03:57:47;4.43;;;2.67;;
10509;SDS011;5303;53.266;10.410;2023-04-03T04:00:13;5.07;;;3.13;;
10509;SDS011;5303;53.266;10.410;2023-04-03T04:02:38;5.27;;;3.20;;
10509;SDS011;5303;53.266;10.410;2023-04-03T04:05:04;7.00;;;3.07;;
10509;SDS011;5303;53.266;10.410;2023-04-03T04:07:29;5.47;;;3.30;;
10509;SDS011;5303;53.266;10.410;2023-04-03T04:09:55;8.73;;;3.10;;
10509;SDS011;5303;53.266;10.410;2023-04-03T04:12:20;8.97;;;3.23;;
10509;SDS011;5303;53.266;10.410;2023-04-03T04:14:46;6.23;;;3.00;;
10509;SDS011;5303;53.266;10.410;2023-04-03T04:17:15;5.00;;;2.73;;
10509;SDS011;5303;53.266;10.410;2023-04-03T04:19:40;6.33;;;3.30;;
10509;SDS011;5303;53.266;10.410;2023-04-03T04:22:06;7.13;;;3.20;;
10509;SDS011;5303;53.266;10.410;2023-04-03T04:24:31;6.27;;;3.27;;
10509;SDS011;5303;53.266;10.410;2023-04-03T04:26:56;3.60;;;2.57;;
10509;SDS011;5303;53.266;10.410;2023-04-03T04:29:22;4.50;;;2.90;;
10509;SDS011;5303;53.266;10.410;2023-04-03T04:31:47;5.97;;;3.30;;
10509;SDS011;5303;53.266;10.410;2023-04-03T04:34:12;6.33;;;3.33;;
10509;SDS011;5303;53.266;10.410;2023-04-03T04:36:38;7.07;;;3.30;;
10509;SDS011;5303;53.266;10.410;2023-04-03T04:39:04;4.73;;;2.93;;
10509;SDS011;5303;53.266;10.410;2023-04-03T04:41:30;8.87;;;3.23;;
10509;SDS011;5303;53.266;10.410;2023-04-03T04:43:56;5.43;;;3.30;;
10509;SDS011;5303;53.266;10.410;2023-04-03T04:46:21;8.37;;;3.30;;
10509;SDS011;5303;53.266;10.410;2023-04-03T04:48:47;5.13;;;3.03;;
10509;SDS011;5303;53.266;10.410;2023-04-03T04:51:13;7.60;;;3.07;;
10509;SDS011;5303;53.266;10.410;2023-04-03T04:53:39;6.40;;;3.63;;
10509;SDS011;5303;53.266;10.410;2023-04-03T04:56:04;7.17;;;3.50;;
10509;SDS011;5303;53.266;10.410;2023-04-03T04:58:30;6.43;;;3.00;;
10509;SDS011;5303;53.266;10.410;2023-04-03T05:00:59;6.67;;;2.90;;
10509;SDS011;5303;53.266;10.410;2023-04-03T05:03:29;10.10;;;3.70;;
10509;SDS011;5303;53.266;10.410;2023-04-03T05:05:54;5.83;;;3.60;;
10509;SDS011;5303;53.266;10.410;2023-04-03T05:08:20;8.20;;;2.87;;
10509;SDS011;5303;53.266;10.410;2023-04-03T05:10:45;7.40;;;3.53;;
10509;SDS011;5303;53.266;10.410;2023-04-03T05:13:11;5.17;;;3.87;;
10509;SDS011;5303;53.266;10.410;2023-04-03T05:15:37;6.27;;;3.20;;
10509;SDS011;5303;53.266;10.410;2023-04-03T05:18:02;4.73;;;2.97;;
10509;SDS011;5303;53.266;10.410;2023-04-03T05:20:28;11.23;;;4.40;;
10509;SDS011;5303;53.266;10.410;2023-04-03T05:22:53;5.73;;;3.60;;
10509;SDS011;5303;53.266;10.410;2023-04-03T05:25:18;6.40;;;4.27;;
10509;SDS011;5303;53.266;10.410;2023-04-03T05:27:43;6.70;;;3.77;;
10509;SDS011;5303;53.266;10.410;2023-04-03T05:30:09;7.13;;;3.77;;
10509;SDS011;5303;53.266;10.410;2023-04-03T05:32:35;7.30;;;3.53;;
10509;SDS011;5303;53.266;10.410;2023-04-03T05:35:00;7.30;;;4.03;;
10509;SDS011;5303;53.266;10.410;2023-04-03T05:37:26;5.50;;;3.40;;
10509;SDS011;5303;53.266;10.410;2023-04-03T05:39:51;5.80;;;3.33;;
10509;SDS011;5303;53.266;10.410;2023-04-03T05:42:16;7.00;;;3.57;;
10509;SDS011;5303;53.266;10.410;2023-04-03T05:44:42;14.87;;;7.37;;
10509;SDS011;5303;53.266;10.410;2023-04-03T05:47:07;9.47;;;4.43;;
10509;SDS011;5303;53.266;10.410;2023-04-03T05:49:34;5.33;;;3.60;;
10509;SDS011;5303;53.266;10.410;2023-04-03T05:52:00;5.37;;;3.40;;
10509;SDS011;5303;53.266;10.410;2023-04-03T05:54:29;7.90;;;3.43;;
10509;SDS011;5303;53.266;10.410;2023-04-03T05:56:55;8.93;;;3.77;;
10509;SDS011;5303;53.266;10.410;2023-04-03T05:59:20;4.77;;;3.37;;
10509;SDS011;5303;53.266;10.410;2023-04-03T06:01:46;5.10;;;3.47;;
10509;SDS011;5303;53.266;10.410;2023-04-03T06:04:11;7.10;;;3.73;;
10509;SDS011;5303;53.266;10.410;2023-04-03T06:06:51;7.50;;;4.33;;
10509;SDS011;5303;53.266;10.410;2023-04-03T06:09:22;8.50;;;4.07;;
10509;SDS011;5303;53.266;10.410;2023-04-03T06:11:49;13.07;;;5.47;;
10509;SDS011;5303;53.266;10.410;2023-04-03T06:14:16;9.57;;;4.80;;
10509;SDS011;5303;53.266;10.410;2023-04-03T06:16:42;11.40;;;5.10;;
10509;SDS011;5303;53.266;10.410;2023-04-03T06:19:08;7.90;;;4.87;;
10509;SDS011;5303;53.266;10.410;2023-04-03T06:21:34;11.30;;;3.83;;
10509;SDS011;5303;53.266;10.410;2023-04-03T06:24:00;8.97;;;4.33;;
10509;SDS011;5303;53.266;10.410;2023-04-03T06:26:27;12.33;;;4.17;;
10509;SDS011;5303;53.266;10.410;2023-04-03T06:28:53;11.03;;;3.40;;
10509;SDS011;5303;53.266;10.410;2023-04-03T06:31:18;6.87;;;3.77;;
10509;SDS011;5303;53.266;10.410;2023-04-03T06:33:44;7.23;;;3.73;;
10509;SDS011;5303;53.266;10.410;2023-04-03T06:36:09;6.53;;;2.60;;
10509;SDS011;5303;53.266;10.410;2023-04-03T06:38:36;7.47;;;2.30;;
10509;SDS011;5303;53.266;10.410;2023-04-03T06:41:01;6.50;;;2.50;;
10509;SDS011;5303;53.266;10.410;2023-04-03T06:43:27;5.93;;;2.20;;
10509;SDS011;5303;53.266;10.410;2023-04-03T06:45:52;8.87;;;3.20;;
10509;SDS011;5303;53.266;10.410;2023-04-03T06:48:18;7.53;;;2.37;;
10509;SDS011;5303;53.266;10.410;2023-04-03T06:50:43;6.57;;;2.40;;
10509;SDS011;5303;53.266;10.410;2023-04-03T06:53:09;4.63;;;2.10;;
10509;SDS011;5303;53.266;10.410;2023-04-03T06:55:37;5.67;;;2.20;;
10509;SDS011;5303;53.266;10.410;2023-04-03T06:58:02;4.67;;;2.33;;
10509;SDS011;5303;53.266;10.410;2023-04-03T07:00:29;6.80;;;2.60;;
10509;SDS011;5303;53.266;10.410;2023-04-03T07:02:55;4.90;;;2.10;;
10509;SDS011;5303;53.266;10.410;2023-04-03T07:05:22;6.17;;;2.40;;
10509;SDS011;5303;53.266;10.410;2023-04-03T07:07:47;3.10;;;1.97;;
10509;SDS011;5303;53.266;10.410;2023-04-03T07:10:14;3.83;;;2.13;;
10509;SDS011;5303;53.266;10.410;2023-04-03T07:12:40;3.63;;;2.20;;
10509;SDS011;5303;53.266;10.410;2023-04-03T07:15:05;6.00;;;2.10;;
10509;SDS011;5303;53.266;10.410;2023-04-03T07:17:31;8.60;;;2.30;;
10509;SDS011;5303;53.266;10.410;2023-04-03T07:19:57;4.20;;;1.93;;
10509;SDS011;5303;53.266;10.410;2023-04-03T07:22:22;5.93;;;2.10;;
10509;SDS011;5303;53.266;10.410;2023-04-03T07:24:48;6.37;;;1.97;;
10509;SDS011;5303;53.266;10.410;2023-04-03T07:27:13;5.10;;;1.97;;
10509;SDS011;5303;53.266;10.410;2023-04-03T07:29:38;4.07;;;1.90;;
10509;SDS011;5303;53.266;10.410;2023-04-03T07:32:04;4.00;;;2.13;;
10509;SDS011;5303;53.266;10.410;2023-04-03T07:34:31;3.50;;;1.90;;
10509;SDS011;5303;53.266;10.410;2023-04-03T07:36:57;7.73;;;2.00;;
10509;SDS011;5303;53.266;10.410;2023-04-03T07:39:23;4.27;;;1.70;;
10509;SDS011;5303;53.266;10.410;2023-04-03T07:41:48;5.70;;;1.80;;
10509;SDS011;5303;53.266;10.410;2023-04-03T07:44:13;6.17;;;1.90;;
10509;SDS011;5303;53.266;10.410;2023-04-03T07:46:38;5.47;;;1.93;;
10509;SDS011;5303;53.266;10.410;2023-04-03T07:49:05;2.17;;;1.80;;
10509;SDS011;5303;53.266;10.410;2023-04-03T07:51:30;3.60;;;1.80;;
10509;SDS011;5303;53.266;10.410;2023-04-03T07:53:56;3.47;;;1.63;;
10509;SDS011;5303;53.266;10.410;2023-04-03T07:56:21;4.67;;;1.50;;
10509;SDS011;5303;53.266;10.410;2023-04-03T07:58:47;3.93;;;2.00;;
10509;SDS011;5303;53.266;10.410;2023-04-03T08:01:14;5.20;;;1.83;;
10509;SDS011;5303;53.266;10.410;2023-04-03T08:03:39;4.27;;;1.80;;
10509;SDS011;5303;53.266;10.410;2023-04-03T08:06:06;5.47;;;1.90;;
10509;SDS011;5303;53.266;10.410;2023-04-03T08:08:32;6.03;;;1.90;;
10509;SDS011;5303;53.266;10.410;2023-04-03T08:10:59;6.87;;;1.80;;
10509;SDS011;5303;53.266;10.410;2023-04-03T08:13:25;3.83;;;1.60;;
10509;SDS011;5303;53.266;10.410;2023-04-03T08:15:51;4.90;;;2.00;;
10509;SDS011;5303;53.266;10.410;2023-04-03T08:18:17;2.70;;;2.10;;
10509;SDS011;5303;53.266;10.410;2023-04-03T08:20:43;2.80;;;1.80;;
10509;SDS011;5303;53.266;10.410;2023-04-03T08:23:09;3.43;;;1.50;;
10509;SDS011;5303;53.266;10.410;2023-04-03T08:25:38;2.83;;;1.50;;
10509;SDS011;5303;53.266;10.410;2023-04-03T08:28:05;2.53;;;1.47;;
10509;SDS011;5303;53.266;10.410;2023-04-03T08:30:31;2.53;;;1.57;;
10509;SDS011;5303;53.266;10.410;2023-04-03T08:32:56;4.47;;;1.33;;
10509;SDS011;5303;53.266;10.410;2023-04-03T08:35:22;3.88;;;1.60;;
10509;SDS011;5303;53.266;10.410;2023-04-03T08:37:47;3.60;;;1.60;;
10509;SDS011;5303;53.266;10.410;2023-04-03T08:40:13;2.63;;;1.50;;
10509;SDS011;5303;53.266;10.410;2023-04-03T08:45:37;4.07;;;1.50;;
10509;SDS011;5303;53.266;10.410;2023-04-03T08:48:20;2.80;;;1.60;;
10509;SDS011;5303;53.266;10.410;2023-04-03T08:50:47;1.93;;;1.23;;
10509;SDS011;5303;53.266;10.410;2023-04-03T08:53:20;2.57;;;1.23;;
10509;SDS011;5303;53.266;10.410;2023-04-03T08:55:49;3.10;;;1.40;;
10509;SDS011;5303;53.266;10.410;2023-04-03T08:58:22;2.40;;;1.53;;
10509;SDS011;5303;53.266;10.410;2023-04-03T09:00:55;3.80;;;1.30;;
10509;SDS011;5303;53.266;10.410;2023-04-03T09:03:23;3.53;;;1.17;;
10509;SDS011;5303;53.266;10.410;2023-04-03T09:11:04;2.27;;;1.20;;
10509;SDS011;5303;53.266;10.410;2023-04-03T09:16:19;2.23;;;1.37;;
10509;SDS011;5303;53.266;10.410;2023-04-03T09:19:26;3.20;;;1.50;;
10509;SDS011;5303;53.266;10.410;2023-04-03T09:22:23;2.93;;;1.50;;
10509;SDS011;5303;53.266;10.410;2023-04-03T09:24:51;2.63;;;1.40;;
10509;SDS011;5303;53.266;10.410;2023-04-03T09:27:27;2.33;;;1.30;;
10509;SDS011;5303;53.266;10.410;2023-04-03T09:29:53;3.10;;;1.30;;
10509;SDS011;5303;53.266;10.410;2023-04-03T09:32:31;3.27;;;1.40;;
10509;SDS011;5303;53.266;10.410;2023-04-03T09:35:02;2.50;;;1.40;;
10509;SDS011;5303;53.266;10.410;2023-04-03T09:37:49;3.07;;;1.50;;
10509;SDS011;5303;53.266;10.410;2023-04-03T09:42:58;5.03;;;1.70;;
10509;SDS011;5303;53.266;10.410;2023-04-03T09:45:30;2.53;;;1.40;;
10509;SDS011;5303;53.266;10.410;2023-04-03T09:50:37;4.93;;;1.30;;
10509;SDS011;5303;53.266;10.410;2023-04-03T09:53:07;2.37;;;1.20;;
10509;SDS011;5303;53.266;10.410;2023-04-03T09:55:53;4.73;;;1.40;;
10509;SDS011;5303;53.266;10.410;2023-04-03T09:58:25;4.07;;;1.33;;
10509;SDS011;5303;53.266;10.410;2023-04-03T10:00:57;3.80;;;1.40;;
10509;SDS011;5303;53.266;10.410;2023-04-03T10:03:29;1.37;;;0.80;;
10509;SDS011;5303;53.266;10.410;2023-04-03T10:05:55;2.77;;;1.33;;
10509;SDS011;5303;53.266;10.410;2023-04-03T10:08:24;3.20;;;1.40;;
10509;SDS011;5303;53.266;10.410;2023-04-03T10:13:36;1.47;;;1.10;;
10509;SDS011;5303;53.266;10.410;2023-04-03T10:16:14;2.53;;;1.10;;
10509;SDS011;5303;53.266;10.410;2023-04-03T10:24:11;2.30;;;1.20;;
10509;SDS011;5303;53.266;10.410;2023-04-03T10:26:57;3.10;;;1.40;;
10509;SDS011;5303;53.266;10.410;2023-04-03T10:29:35;2.73;;;1.40;;
10509;SDS011;5303;53.266;10.410;2023-04-03T10:34:43;3.07;;;1.60;;
10509;SDS011;5303;53.266;10.410;2023-04-03T10:42:55;3.97;;;1.40;;
10509;SDS011;5303;53.266;10.410;2023-04-03T10:45:24;1.97;;;1.30;;
10509;SDS011;5303;53.266;10.410;2023-04-03T10:56:15;3.47;;;1.33;;
10509;SDS011;5303;53.266;10.410;2023-04-03T10:58:43;2.50;;;1.30;;
10509;SDS011;5303;53.266;10.410;2023-04-03T11:01:16;2.90;;;1.47;;
10509;SDS011;5303;53.266;10.410;2023-04-03T11:03:46;4.40;;;1.60;;
10509;SDS011;5303;53.266;10.410;2023-04-03T11:06:16;2.77;;;1.40;;
10509;SDS011;5303;53.266;10.410;2023-04-03T11:08:55;1.77;;;1.30;;
10509;SDS011;5303;53.266;10.410;2023-04-03T11:11:29;2.70;;;1.23;;
10509;SDS011;5303;53.266;10.410;2023-04-03T11:14:05;3.33;;;1.40;;
10509;SDS011;5303;53.266;10.410;2023-04-03T11:16:42;2.10;;;1.50;;
10509;SDS011;5303;53.266;10.410;2023-04-03T11:19:16;1.97;;;1.20;;
10509;SDS011;5303;53.266;10.410;2023-04-03T11:24:38;2.77;;;1.07;;
10509;SDS011;5303;53.266;10.410;2023-04-03T11:27:08;3.97;;;1.73;;
10509;SDS011;5303;53.266;10.410;2023-04-03T11:29:41;2.80;;;1.30;;
10509;SDS011;5303;53.266;10.410;2023-04-03T11:34:53;1.87;;;1.13;;
10509;SDS011;5303;53.266;10.410;2023-04-03T11:40:06;2.07;;;1.27;;
10509;SDS011;5303;53.266;10.410;2023-04-03T11:42:47;3.07;;;1.60;;
10509;SDS011;5303;53.266;10.410;2023-04-03T11:50:31;2.93;;;1.40;;
10509;SDS011;5303;53.266;10.410;2023-04-03T11:53:01;2.47;;;1.30;;
10509;SDS011;5303;53.266;10.410;2023-04-03T12:05:56;3.60;;;1.77;;
10509;SDS011;5303;53.266;10.410;2023-04-03T12:26:36;2.80;;;1.30;;
10509;SDS011;5303;53.266;10.410;2023-04-03T12:37:19;3.20;;;1.37;;
10509;SDS011;5303;53.266;10.410;2023-04-03T12:40:08;3.27;;;1.23;;
10509;SDS011;5303;53.266;10.410;2023-04-03T12:42:53;3.20;;;1.67;;
10509;SDS011;5303;53.266;10.410;2023-04-03T12:45:21;4.10;;;1.90;;
10509;SDS011;5303;53.266;10.410;2023-04-03T12:47:49;3.97;;;1.60;;
10509;SDS011;5303;53.266;10.410;2023-04-03T12:50:24;2.20;;;1.53;;
10509;SDS011;5303;53.266;10.410;2023-04-03T12:52:59;3.87;;;1.90;;
10509;SDS011;5303;53.266;10.410;2023-04-03T12:55:29;2.78;;;1.55;;
10509;SDS011;5303;53.266;10.410;2023-04-03T12:57:54;2.23;;;1.40;;
10509;SDS011;5303;53.266;10.410;2023-04-03T13:02:46;1.37;;;1.13;;
10509;SDS011;5303;53.266;10.410;2023-04-03T13:05:14;4.37;;;1.90;;
10509;SDS011;5303;53.266;10.410;2023-04-03T13:07:42;4.10;;;1.27;;
10509;SDS011;5303;53.266;10.410;2023-04-03T13:12:34;2.50;;;1.73;;
10509;SDS011;5303;53.266;10.410;2023-04-03T13:18:23;2.83;;;1.40;;
10509;SDS011;5303;53.266;10.410;2023-04-03T13:20:50;2.73;;;1.80;;
10509;SDS011;5303;53.266;10.410;2023-04-03T13:23:16;4.57;;;2.00;;
10509;SDS011;5303;53.266;10.410;2023-04-03T13:25:45;2.03;;;1.63;;
10509;SDS011;5303;53.266;10.410;2023-04-03T13:28:14;4.27;;;1.53;;
10509;SDS011;5303;53.266;10.410;2023-04-03T13:33:28;3.67;;;1.43;;
10509;SDS011;5303;53.266;10.410;2023-04-03T13:35:57;5.00;;;1.43;;
10509;SDS011;5303;53.266;10.410;2023-04-03T13:38:29;2.30;;;1.40;;
10509;SDS011;5303;53.266;10.410;2023-04-03T13:41:00;3.27;;;1.50;;
10509;SDS011;5303;53.266;10.410;2023-04-03T13:43:29;3.90;;;1.60;;
10509;SDS011;5303;53.266;10.410;2023-04-03T13:46:04;3.17;;;1.53;;
10509;SDS011;5303;53.266;10.410;2023-04-03T13:48:47;3.83;;;1.70;;
10509;SDS011;5303;53.266;10.410;2023-04-03T13:53:42;3.23;;;1.60;;
10509;SDS011;5303;53.266;10.410;2023-04-03T13:56:16;3.40;;;1.50;;
10509;SDS011;5303;53.266;10.410;2023-04-03T13:59:03;2.00;;;1.30;;
10509;SDS011;5303;53.266;10.410;2023-04-03T14:01:34;3.33;;;1.43;;
10509;SDS011;5303;53.266;10.410;2023-04-03T14:04:10;1.33;;;1.10;;
10509;SDS011;5303;53.266;10.410;2023-04-03T14:06:41;2.80;;;1.30;;
10509;SDS011;5303;53.266;10.410;2023-04-03T14:09:07;2.83;;;1.30;;
10509;SDS011;5303;53.266;10.410;2023-04-03T14:11:33;3.63;;;1.80;;
10509;SDS011;5303;53.266;10.410;2023-04-03T14:14:00;3.77;;;1.50;;
10509;SDS011;5303;53.266;10.410;2023-04-03T14:16:31;2.37;;;1.53;;
10509;SDS011;5303;53.266;10.410;2023-04-03T14:18:59;3.37;;;1.60;;
10509;SDS011;5303;53.266;10.410;2023-04-03T14:21:24;4.00;;;1.50;;
10509;SDS011;5303;53.266;10.410;2023-04-03T14:23:50;2.83;;;1.47;;
10509;SDS011;5303;53.266;10.410;2023-04-03T14:26:17;2.73;;;1.50;;
10509;SDS011;5303;53.266;10.410;2023-04-03T14:28:45;2.43;;;1.57;;
10509;SDS011;5303;53.266;10.410;2023-04-03T14:31:13;1.87;;;1.30;;
10509;SDS011;5303;53.266;10.410;2023-04-03T14:33:40;3.00;;;1.27;;
10509;SDS011;5303;53.266;10.410;2023-04-03T14:36:17;1.67;;;1.30;;
10509;SDS011;5303;53.266;10.410;2023-04-03T14:38:47;3.17;;;1.40;;
10509;SDS011;5303;53.266;10.410;2023-04-03T14:41:14;2.03;;;1.40;;
10509;SDS011;5303;53.266;10.410;2023-04-03T14:43:43;1.67;;;1.10;;
10509;SDS011;5303;53.266;10.410;2023-04-03T14:46:14;2.67;;;1.23;;
10509;SDS011;5303;53.266;10.410;2023-04-03T14:48:42;1.40;;;1.30;;
10509;SDS011;5303;53.266;10.410;2023-04-03T14:51:10;3.07;;;1.40;;
10509;SDS011;5303;53.266;10.410;2023-04-03T14:53:37;2.00;;;1.20;;
10509;SDS011;5303;53.266;10.410;2023-04-03T14:56:04;3.20;;;1.37;;
10509;SDS011;5303;53.266;10.410;2023-04-03T14:58:35;3.03;;;1.50;;
10509;SDS011;5303;53.266;10.410;2023-04-03T15:01:01;3.53;;;1.37;;
10509;SDS011;5303;53.266;10.410;2023-04-03T15:03:27;4.53;;;1.47;;
10509;SDS011;5303;53.266;10.410;2023-04-03T15:05:52;2.03;;;0.97;;
10509;SDS011;5303;53.266;10.410;2023-04-03T15:08:19;1.30;;;1.00;;
10509;SDS011;5303;53.266;10.410;2023-04-03T15:10:47;1.47;;;1.23;;
10509;SDS011;5303;53.266;10.410;2023-04-03T15:13:13;3.13;;;1.20;;
10509;SDS011;5303;53.266;10.410;2023-04-03T15:15:38;2.57;;;1.40;;
10509;SDS011;5303;53.266;10.410;2023-04-03T15:18:04;4.10;;;1.23;;
10509;SDS011;5303;53.266;10.410;2023-04-03T15:20:30;2.27;;;1.27;;
10509;SDS011;5303;53.266;10.410;2023-04-03T15:22:58;4.00;;;1.20;;
10509;SDS011;5303;53.266;10.410;2023-04-03T15:25:26;2.93;;;1.20;;
10509;SDS011;5303;53.266;10.410;2023-04-03T15:27:52;2.60;;;1.40;;
10509;SDS011;5303;53.266;10.410;2023-04-03T15:30:21;2.70;;;1.50;;
10509;SDS011;5303;53.266;10.410;2023-04-03T15:32:47;1.60;;;1.00;;
10509;SDS011;5303;53.266;10.410;2023-04-03T15:35:12;3.20;;;1.40;;
10509;SDS011;5303;53.266;10.410;2023-04-03T15:37:37;2.10;;;1.03;;
10509;SDS011;5303;53.266;10.410;2023-04-03T15:40:03;2.00;;;1.30;;
10509;SDS011;5303;53.266;10.410;2023-04-03T15:42:29;1.90;;;1.20;;
10509;SDS011;5303;53.266;10.410;2023-04-03T15:44:55;1.73;;;1.17;;
10509;SDS011;5303;53.266;10.410;2023-04-03T15:47:20;2.40;;;1.30;;
10509;SDS011;5303;53.266;10.410;2023-04-03T15:49:45;2.87;;;1.40;;
10509;SDS011;5303;53.266;10.410;2023-04-03T15:52:11;2.83;;;1.20;;
10509;SDS011;5303;53.266;10.410;2023-04-03T15:54:36;2.27;;;1.10;;
10509;SDS011;5303;53.266;10.410;2023-04-03T15:57:01;1.70;;;1.43;;
10509;SDS011;5303;53.266;10.410;2023-04-03T15:59:27;2.93;;;1.50;;
10509;SDS011;5303;53.266;10.410;2023-04-03T16:01:54;3.20;;;1.30;;
10509;SDS011;5303;53.266;10.410;2023-04-03T16:04:20;2.40;;;1.40;;
10509;SDS011;5303;53.266;10.410;2023-04-03T16:06:45;2.23;;;1.50;;
10509;SDS011;5303;53.266;10.410;2023-04-03T16:09:11;2.70;;;1.40;;
10509;SDS011;5303;53.266;10.410;2023-04-03T16:11:36;2.97;;;1.70;;
10509;SDS011;5303;53.266;10.410;2023-04-03T16:14:04;3.30;;;1.37;;
10509;SDS011;5303;53.266;10.410;2023-04-03T16:16:30;2.90;;;1.30;;
10509;SDS011;5303;53.266;10.410;2023-04-03T16:18:55;2.80;;;1.30;;
10509;SDS011;5303;53.266;10.410;2023-04-03T16:21:21;2.23;;;1.33;;
10509;SDS011;5303;53.266;10.410;2023-04-03T16:23:47;3.23;;;1.47;;
10509;SDS011;5303;53.266;10.410;2023-04-03T16:26:13;4.77;;;2.10;;
10509;SDS011;5303;53.266;10.410;2023-04-03T16:28:38;4.30;;;1.47;;
10509;SDS011;5303;53.266;10.410;2023-04-03T16:31:04;2.67;;;1.40;;
10509;SDS011;5303;53.266;10.410;2023-04-03T16:33:30;2.33;;;1.50;;
10509;SDS011;5303;53.266;10.410;2023-04-03T16:35:55;3.10;;;1.37;;
10509;SDS011;5303;53.266;10.410;2023-04-03T16:38:21;3.07;;;1.53;;
10509;SDS011;5303;53.266;10.410;2023-04-03T16:40:47;2.60;;;1.40;;